sensor_id;sensor_type;location;lat;lon;timestamp;temperature;humidity
23560;DHT22;11958;50.836;4.438;2023-04-22T00:02:11;9.10;87.00
23560;DHT22;11958;50.836;4.438;2023-04-22T00:04:39;9.10;87.20
23560;DHT22;11958;50.836;4.438;2023-04-22T00:07:06;9.30;86.80
23560;DHT22;11958;50.836;4.438;2023-04-22T00:09:32;9.20;86.70
23560;DHT22;11958;50.836;4.438;2023-04-22T00:11:57;9.20;87.10
23560;DHT22;11958;50.836;4.438;2023-04-22T00:14:23;8.80;87.60
23560;DHT22;11958;50.836;4.438;2023-04-22T00:16:49;8.70;88.30
23560;DHT22;11958;50.836;4.438;2023-04-22T00:19:15;8.60;88.90
23560;DHT22;11958;50.836;4.438;2023-04-22T00:21:40;8.40;88.90
23560;DHT22;11958;50.836;4.438;2023-04-22T00:24:06;8.90;89.00
23560;DHT22;11958;50.836;4.438;2023-04-22T00:26:32;8.80;88.70
23560;DHT22;11958;50.836;4.438;2023-04-22T00:28:58;8.50;88.80
23560;DHT22;11958;50.836;4.438;2023-04-22T00:31:23;8.50;89.40
23560;DHT22;11958;50.836;4.438;2023-04-22T00:33:49;8.90;89.20
23560;DHT22;11958;50.836;4.438;2023-04-22T00:36:15;8.90;88.30
23560;DHT22;11958;50.836;4.438;2023-04-22T00:38:45;8.60;88.40
23560;DHT22;11958;50.836;4.438;2023-04-22T00:41:13;8.60;88.80
23560;DHT22;11958;50.836;4.438;2023-04-22T00:43:39;8.60;88.90
23560;DHT22;11958;50.836;4.438;2023-04-22T00:46:05;8.50;88.90
23560;DHT22;11958;50.836;4.438;2023-04-22T00:48:31;9.00;88.20
23560;DHT22;11958;50.836;4.438;2023-04-22T00:50:57;9.10;87.10
23560;DHT22;11958;50.836;4.438;2023-04-22T00:53:22;9.10;86.60
23560;DHT22;11958;50.836;4.438;2023-04-22T00:55:48;8.90;86.20
23560;DHT22;11958;50.836;4.438;2023-04-22T00:58:14;9.00;86.70
23560;DHT22;11958;50.836;4.438;2023-04-22T01:00:40;9.00;86.50
23560;DHT22;11958;50.836;4.438;2023-04-22T01:03:06;9.10;86.40
23560;DHT22;11958;50.836;4.438;2023-04-22T01:05:32;8.90;86.80
23560;DHT22;11958;50.836;4.438;2023-04-22T01:07:59;8.80;87.20
23560;DHT22;11958;50.836;4.438;2023-04-22T01:10:25;8.30;88.20
23560;DHT22;11958;50.836;4.438;2023-04-22T01:12:50;8.60;88.10
23560;DHT22;11958;50.836;4.438;2023-04-22T01:15:16;8.60;87.80
23560;DHT22;11958;50.836;4.438;2023-04-22T01:17:42;8.80;87.40
23560;DHT22;11958;50.836;4.438;2023-04-22T01:20:08;8.70;87.40
23560;DHT22;11958;50.836;4.438;2023-04-22T01:22:40;8.50;87.40
23560;DHT22;11958;50.836;4.438;2023-04-22T01:25:07;8.80;88.10
23560;DHT22;11958;50.836;4.438;2023-04-22T01:27:34;9.20;86.30
23560;DHT22;11958;50.836;4.438;2023-04-22T01:30:01;9.10;86.00
23560;DHT22;11958;50.836;4.438;2023-04-22T01:32:26;8.60;86.50
23560;DHT22;11958;50.836;4.438;2023-04-22T01:34:55;8.30;87.70
23560;DHT22;11958;50.836;4.438;2023-04-22T01:37:21;8.10;88.60
23560;DHT22;11958;50.836;4.438;2023-04-22T01:39:47;8.10;89.20
23560;DHT22;11958;50.836;4.438;2023-04-22T01:42:14;7.90;89.30
23560;DHT22;11958;50.836;4.438;2023-04-22T01:44:40;7.90;89.50
23560;DHT22;11958;50.836;4.438;2023-04-22T01:47:06;7.80;90.00
23560;DHT22;11958;50.836;4.438;2023-04-22T01:49:32;8.10;90.10
23560;DHT22;11958;50.836;4.438;2023-04-22T01:51:58;8.30;89.20
23560;DHT22;11958;50.836;4.438;2023-04-22T01:54:24;8.60;88.00
23560;DHT22;11958;50.836;4.438;2023-04-22T01:56:53;8.80;86.90
23560;DHT22;11958;50.836;4.438;2023-04-22T01:59:20;8.80;86.70
23560;DHT22;11958;50.836;4.438;2023-04-22T02:01:46;8.40;87.20
23560;DHT22;11958;50.836;4.438;2023-04-22T02:04:12;8.30;87.90
23560;DHT22;11958;50.836;4.438;2023-04-22T02:06:38;8.10;87.90
23560;DHT22;11958;50.836;4.438;2023-04-22T02:09:04;8.00;88.70
23560;DHT22;11958;50.836;4.438;2023-04-22T02:11:30;8.00;89.50
23560;DHT22;11958;50.836;4.438;2023-04-22T02:13:56;8.00;89.60
23560;DHT22;11958;50.836;4.438;2023-04-22T02:16:21;8.10;89.20
23560;DHT22;11958;50.836;4.438;2023-04-22T02:18:47;8.10;89.10
23560;DHT22;11958;50.836;4.438;2023-04-22T02:21:13;8.20;88.60
23560;DHT22;11958;50.836;4.438;2023-04-22T02:23:39;8.00;89.00
23560;DHT22;11958;50.836;4.438;2023-04-22T02:26:06;8.20;88.90
23560;DHT22;11958;50.836;4.438;2023-04-22T02:28:31;8.50;87.80
23560;DHT22;11958;50.836;4.438;2023-04-22T02:30:57;8.70;86.80
23560;DHT22;11958;50.836;4.438;2023-04-22T02:33:23;8.90;85.90
23560;DHT22;11958;50.836;4.438;2023-04-22T02:35:48;8.60;86.10
23560;DHT22;11958;50.836;4.438;2023-04-22T02:38:14;8.60;86.80
23560;DHT22;11958;50.836;4.438;2023-04-22T02:40:40;8.70;86.10
23560;DHT22;11958;50.836;4.438;2023-04-22T02:43:06;8.70;86.00
23560;DHT22;11958;50.836;4.438;2023-04-22T02:45:32;8.70;86.30
23560;DHT22;11958;50.836;4.438;2023-04-22T02:47:57;8.70;86.70
23560;DHT22;11958;50.836;4.438;2023-04-22T02:50:23;8.40;87.10
23560;DHT22;11958;50.836;4.438;2023-04-22T02:52:49;8.10;87.60
23560;DHT22;11958;50.836;4.438;2023-04-22T03:37:05;8.00;88.80
23560;DHT22;11958;50.836;4.438;2023-04-22T03:39:33;8.10;89.90
23560;DHT22;11958;50.836;4.438;2023-04-22T03:41:59;7.90;89.50
23560;DHT22;11958;50.836;4.438;2023-04-22T03:44:25;7.80;90.10
23560;DHT22;11958;50.836;4.438;2023-04-22T03:46:51;8.20;90.40
23560;DHT22;11958;50.836;4.438;2023-04-22T03:49:17;8.50;88.50
23560;DHT22;11958;50.836;4.438;2023-04-22T03:51:42;8.60;87.90
23560;DHT22;11958;50.836;4.438;2023-04-22T03:54:08;8.30;88.00
23560;DHT22;11958;50.836;4.438;2023-04-22T03:56:34;8.60;87.80
23560;DHT22;11958;50.836;4.438;2023-04-22T03:58:59;8.50;87.30
23560;DHT22;11958;50.836;4.438;2023-04-22T04:01:25;8.30;88.20
23560;DHT22;11958;50.836;4.438;2023-04-22T04:03:51;8.40;89.00
23560;DHT22;11958;50.836;4.438;2023-04-22T04:06:16;8.70;87.80
23560;DHT22;11958;50.836;4.438;2023-04-22T04:08:42;8.70;87.00
23560;DHT22;11958;50.836;4.438;2023-04-22T04:11:08;8.60;87.00
23560;DHT22;11958;50.836;4.438;2023-04-22T04:13:35;8.50;87.40
23560;DHT22;11958;50.836;4.438;2023-04-22T04:16:01;8.50;87.30
23560;DHT22;11958;50.836;4.438;2023-04-22T04:18:26;8.60;87.00
23560;DHT22;11958;50.836;4.438;2023-04-22T04:20:54;8.40;86.90
23560;DHT22;11958;50.836;4.438;2023-04-22T04:23:19;7.80;88.80
23560;DHT22;11958;50.836;4.438;2023-04-22T04:25:45;8.10;88.90
23560;DHT22;11958;50.836;4.438;2023-04-22T04:28:11;8.30;89.10
23560;DHT22;11958;50.836;4.438;2023-04-22T04:30:37;8.20;88.40
23560;DHT22;11958;50.836;4.438;2023-04-22T04:33:03;8.40;88.40
23560;DHT22;11958;50.836;4.438;2023-04-22T04:35:33;8.60;88.10
23560;DHT22;11958;50.836;4.438;2023-04-22T04:37:59;8.80;87.30
23560;DHT22;11958;50.836;4.438;2023-04-22T04:40:26;8.70;86.80
23560;DHT22;11958;50.836;4.438;2023-04-22T04:42:54;8.80;86.60
23560;DHT22;11958;50.836;4.438;2023-04-22T04:49:14;8.80;86.50
23560;DHT22;11958;50.836;4.438;2023-04-22T04:51:41;8.40;87.00
23560;DHT22;11958;50.836;4.438;2023-04-22T04:54:06;8.20;88.70
23560;DHT22;11958;50.836;4.438;2023-04-22T04:56:32;8.20;88.90
23560;DHT22;11958;50.836;4.438;2023-04-22T04:58:58;8.10;88.50
23560;DHT22;11958;50.836;4.438;2023-04-22T05:01:24;8.30;89.10
23560;DHT22;11958;50.836;4.438;2023-04-22T05:03:49;8.10;88.60
23560;DHT22;11958;50.836;4.438;2023-04-22T05:06:15;8.10;88.90
23560;DHT22;11958;50.836;4.438;2023-04-22T05:08:43;8.10;89.80
23560;DHT22;11958;50.836;4.438;2023-04-22T05:11:09;8.70;88.10
23560;DHT22;11958;50.836;4.438;2023-04-22T05:13:35;8.80;87.50
23560;DHT22;11958;50.836;4.438;2023-04-22T05:16:01;9.10;86.60
23560;DHT22;11958;50.836;4.438;2023-04-22T05:18:26;8.70;86.90
23560;DHT22;11958;50.836;4.438;2023-04-22T05:20:52;8.40;87.90
23560;DHT22;11958;50.836;4.438;2023-04-22T05:23:18;8.40;88.10
23560;DHT22;11958;50.836;4.438;2023-04-22T05:25:43;8.50;89.00
23560;DHT22;11958;50.836;4.438;2023-04-22T05:28:09;8.60;88.00
23560;DHT22;11958;50.836;4.438;2023-04-22T05:30:35;8.30;88.60
23560;DHT22;11958;50.836;4.438;2023-04-22T05:33:00;8.50;89.20
23560;DHT22;11958;50.836;4.438;2023-04-22T05:35:26;8.60;89.00
23560;DHT22;11958;50.836;4.438;2023-04-22T05:37:52;9.00;88.20
23560;DHT22;11958;50.836;4.438;2023-04-22T05:40:18;9.00;86.80
23560;DHT22;11958;50.836;4.438;2023-04-22T05:42:43;8.70;88.40
23560;DHT22;11958;50.836;4.438;2023-04-22T05:45:09;8.80;88.80
23560;DHT22;11958;50.836;4.438;2023-04-22T05:47:35;8.80;88.30
23560;DHT22;11958;50.836;4.438;2023-04-22T05:50:03;8.80;87.90
23560;DHT22;11958;50.836;4.438;2023-04-22T05:52:36;8.80;88.40
23560;DHT22;11958;50.836;4.438;2023-04-22T05:55:02;8.80;89.20
23560;DHT22;11958;50.836;4.438;2023-04-22T05:57:27;8.80;89.30
23560;DHT22;11958;50.836;4.438;2023-04-22T05:59:53;8.90;89.60
23560;DHT22;11958;50.836;4.438;2023-04-22T06:02:19;9.00;88.80
23560;DHT22;11958;50.836;4.438;2023-04-22T06:04:45;9.00;89.40
23560;DHT22;11958;50.836;4.438;2023-04-22T06:07:11;9.10;89.50
23560;DHT22;11958;50.836;4.438;2023-04-22T06:09:36;9.30;89.50
23560;DHT22;11958;50.836;4.438;2023-04-22T06:12:02;9.80;88.00
23560;DHT22;11958;50.836;4.438;2023-04-22T06:14:27;9.70;86.90
23560;DHT22;11958;50.836;4.438;2023-04-22T06:16:53;10.00;87.10
23560;DHT22;11958;50.836;4.438;2023-04-22T06:19:19;10.00;86.50
23560;DHT22;11958;50.836;4.438;2023-04-22T06:26:55;9.80;87.60
23560;DHT22;11958;50.836;4.438;2023-04-22T06:29:22;9.80;87.30
23560;DHT22;11958;50.836;4.438;2023-04-22T06:31:48;9.90;87.70
23560;DHT22;11958;50.836;4.438;2023-04-22T06:34:14;10.20;85.90
23560;DHT22;11958;50.836;4.438;2023-04-22T06:36:39;10.20;86.00
23560;DHT22;11958;50.836;4.438;2023-04-22T06:39:05;10.30;86.50
23560;DHT22;11958;50.836;4.438;2023-04-22T06:41:31;10.90;85.50
23560;DHT22;11958;50.836;4.438;2023-04-22T06:43:57;10.80;85.30
23560;DHT22;11958;50.836;4.438;2023-04-22T06:46:23;10.90;85.30
23560;DHT22;11958;50.836;4.438;2023-04-22T06:48:49;10.90;85.30
23560;DHT22;11958;50.836;4.438;2023-04-22T06:51:15;11.40;83.50
23560;DHT22;11958;50.836;4.438;2023-04-22T06:53:40;11.40;83.30
23560;DHT22;11958;50.836;4.438;2023-04-22T06:56:16;11.20;83.40
23560;DHT22;11958;50.836;4.438;2023-04-22T07:49:37;13.00;78.30
23560;DHT22;11958;50.836;4.438;2023-04-22T07:57:31;13.50;76.40
23560;DHT22;11958;50.836;4.438;2023-04-22T08:06:32;13.60;76.40
23560;DHT22;11958;50.836;4.438;2023-04-22T08:08:58;13.60;77.00
23560;DHT22;11958;50.836;4.438;2023-04-22T08:11:27;13.50;76.20
23560;DHT22;11958;50.836;4.438;2023-04-22T08:13:55;13.80;76.00
23560;DHT22;11958;50.836;4.438;2023-04-22T08:16:24;13.70;77.30
23560;DHT22;11958;50.836;4.438;2023-04-22T08:18:54;14.00;77.20
23560;DHT22;11958;50.836;4.438;2023-04-22T08:30:08;15.30;72.30
23560;DHT22;11958;50.836;4.438;2023-04-22T08:32:34;15.10;72.10
23560;DHT22;11958;50.836;4.438;2023-04-22T08:35:00;15.30;71.40
23560;DHT22;11958;50.836;4.438;2023-04-22T08:37:26;15.30;74.50
23560;DHT22;11958;50.836;4.438;2023-04-22T08:39:52;15.30;75.00
23560;DHT22;11958;50.836;4.438;2023-04-22T08:42:19;15.10;75.20
23560;DHT22;11958;50.836;4.438;2023-04-22T08:44:45;15.10;72.60
23560;DHT22;11958;50.836;4.438;2023-04-22T08:47:13;15.20;74.10
23560;DHT22;11958;50.836;4.438;2023-04-22T08:49:41;14.90;73.50
23560;DHT22;11958;50.836;4.438;2023-04-22T08:52:07;14.90;73.80
23560;DHT22;11958;50.836;4.438;2023-04-22T08:54:52;15.10;73.90
23560;DHT22;11958;50.836;4.438;2023-04-22T09:04:50;15.50;70.50
23560;DHT22;11958;50.836;4.438;2023-04-22T09:11:35;15.50;72.00
23560;DHT22;11958;50.836;4.438;2023-04-22T09:14:03;15.30;70.80
23560;DHT22;11958;50.836;4.438;2023-04-22T09:16:30;15.30;72.70
23560;DHT22;11958;50.836;4.438;2023-04-22T09:18:56;15.30;73.80
23560;DHT22;11958;50.836;4.438;2023-04-22T09:21:25;15.80;69.50
23560;DHT22;11958;50.836;4.438;2023-04-22T09:23:53;15.70;69.50
23560;DHT22;11958;50.836;4.438;2023-04-22T09:26:24;15.70;70.10
23560;DHT22;11958;50.836;4.438;2023-04-22T09:28:55;15.80;70.50
23560;DHT22;11958;50.836;4.438;2023-04-22T09:31:23;15.50;71.60
23560;DHT22;11958;50.836;4.438;2023-04-22T09:34:04;15.50;71.40
23560;DHT22;11958;50.836;4.438;2023-04-22T09:36:42;15.20;74.80
23560;DHT22;11958;50.836;4.438;2023-04-22T09:39:18;14.90;75.90
23560;DHT22;11958;50.836;4.438;2023-04-22T09:41:44;14.70;77.10
23560;DHT22;11958;50.836;4.438;2023-04-22T09:44:17;14.40;78.70
23560;DHT22;11958;50.836;4.438;2023-04-22T09:46:43;14.40;79.00
23560;DHT22;11958;50.836;4.438;2023-04-22T09:49:09;14.40;80.00
23560;DHT22;11958;50.836;4.438;2023-04-22T09:51:39;14.40;80.70
23560;DHT22;11958;50.836;4.438;2023-04-22T09:54:06;14.10;82.60
23560;DHT22;11958;50.836;4.438;2023-04-22T09:59:05;14.40;81.70
23560;DHT22;11958;50.836;4.438;2023-04-22T10:01:36;14.30;82.50
23560;DHT22;11958;50.836;4.438;2023-04-22T10:04:02;14.20;83.60
23560;DHT22;11958;50.836;4.438;2023-04-22T10:06:27;14.20;83.90
23560;DHT22;11958;50.836;4.438;2023-04-22T10:08:57;14.10;84.20
23560;DHT22;11958;50.836;4.438;2023-04-22T10:11:23;14.00;84.60
23560;DHT22;11958;50.836;4.438;2023-04-22T10:13:49;13.80;86.00
23560;DHT22;11958;50.836;4.438;2023-04-22T10:16:15;13.80;87.20
23560;DHT22;11958;50.836;4.438;2023-04-22T10:18:44;13.80;87.40
23560;DHT22;11958;50.836;4.438;2023-04-22T10:21:11;14.00;87.60
23560;DHT22;11958;50.836;4.438;2023-04-22T10:23:37;14.10;86.50
23560;DHT22;11958;50.836;4.438;2023-04-22T10:26:04;14.00;87.30
23560;DHT22;11958;50.836;4.438;2023-04-22T10:28:30;14.30;87.40
23560;DHT22;11958;50.836;4.438;2023-04-22T10:31:23;14.40;86.20
23560;DHT22;11958;50.836;4.438;2023-04-22T10:34:10;14.40;86.10
23560;DHT22;11958;50.836;4.438;2023-04-22T10:39:18;14.50;86.30
23560;DHT22;11958;50.836;4.438;2023-04-22T10:44:50;14.70;85.80
23560;DHT22;11958;50.836;4.438;2023-04-22T10:47:30;14.70;85.30
23560;DHT22;11958;50.836;4.438;2023-04-22T10:50:30;14.90;84.90
23560;DHT22;11958;50.836;4.438;2023-04-22T10:52:58;15.00;85.50
23560;DHT22;11958;50.836;4.438;2023-04-22T10:55:24;14.70;85.30
23560;DHT22;11958;50.836;4.438;2023-04-22T10:57:51;14.70;86.10
23560;DHT22;11958;50.836;4.438;2023-04-22T11:00:39;15.00;85.80
23560;DHT22;11958;50.836;4.438;2023-04-22T11:03:11;14.90;85.80
23560;DHT22;11958;50.836;4.438;2023-04-22T11:05:38;14.80;85.30
23560;DHT22;11958;50.836;4.438;2023-04-22T11:13:56;14.40;88.20
23560;DHT22;11958;50.836;4.438;2023-04-22T11:16:32;14.60;88.00
23560;DHT22;11958;50.836;4.438;2023-04-22T11:22:41;14.80;87.30
23560;DHT22;11958;50.836;4.438;2023-04-22T11:25:10;14.90;87.70
23560;DHT22;11958;50.836;4.438;2023-04-22T11:27:37;14.90;86.70
23560;DHT22;11958;50.836;4.438;2023-04-22T11:30:35;14.80;88.00
23560;DHT22;11958;50.836;4.438;2023-04-22T11:33:14;14.70;88.00
23560;DHT22;11958;50.836;4.438;2023-04-22T11:36:20;14.50;88.50
23560;DHT22;11958;50.836;4.438;2023-04-22T11:56:23;14.50;88.90
23560;DHT22;11958;50.836;4.438;2023-04-22T11:58:50;14.30;89.60
23560;DHT22;11958;50.836;4.438;2023-04-22T12:18:55;14.10;90.00
23560;DHT22;11958;50.836;4.438;2023-04-22T12:21:30;14.10;90.50
23560;DHT22;11958;50.836;4.438;2023-04-22T12:24:06;14.10;89.50
23560;DHT22;11958;50.836;4.438;2023-04-22T12:26:52;14.20;88.90
23560;DHT22;11958;50.836;4.438;2023-04-22T12:29:41;14.10;89.30
23560;DHT22;11958;50.836;4.438;2023-04-22T12:32:07;14.00;90.00
23560;DHT22;11958;50.836;4.438;2023-04-22T12:34:46;14.20;90.40
23560;DHT22;11958;50.836;4.438;2023-04-22T12:37:18;14.30;89.50
23560;DHT22;11958;50.836;4.438;2023-04-22T12:39:53;14.20;90.10
23560;DHT22;11958;50.836;4.438;2023-04-22T12:42:18;14.20;90.60
23560;DHT22;11958;50.836;4.438;2023-04-22T12:44:53;14.30;91.50
23560;DHT22;11958;50.836;4.438;2023-04-22T12:47:36;14.50;89.90
23560;DHT22;11958;50.836;4.438;2023-04-22T12:50:02;14.70;89.70
23560;DHT22;11958;50.836;4.438;2023-04-22T12:52:43;14.90;89.10
23560;DHT22;11958;50.836;4.438;2023-04-22T12:55:49;15.00;88.20
23560;DHT22;11958;50.836;4.438;2023-04-22T12:58:15;15.00;88.90
23560;DHT22;11958;50.836;4.438;2023-04-22T13:04:13;15.00;88.20
23560;DHT22;11958;50.836;4.438;2023-04-22T13:12:31;15.00;86.20
23560;DHT22;11958;50.836;4.438;2023-04-22T13:14:59;15.00;86.50
23560;DHT22;11958;50.836;4.438;2023-04-22T13:17:36;15.00;86.70
23560;DHT22;11958;50.836;4.438;2023-04-22T13:20:04;15.00;86.40
23560;DHT22;11958;50.836;4.438;2023-04-22T13:22:33;14.90;87.30
23560;DHT22;11958;50.836;4.438;2023-04-22T13:25:05;14.80;87.80
23560;DHT22;11958;50.836;4.438;2023-04-22T13:27:33;14.90;87.50
23560;DHT22;11958;50.836;4.438;2023-04-22T13:43:52;14.70;89.60
23560;DHT22;11958;50.836;4.438;2023-04-22T14:00:14;14.50;90.00
23560;DHT22;11958;50.836;4.438;2023-04-22T14:02:56;14.40;89.80
23560;DHT22;11958;50.836;4.438;2023-04-22T14:05:27;14.60;89.90
23560;DHT22;11958;50.836;4.438;2023-04-22T14:07:54;14.50;89.30
23560;DHT22;11958;50.836;4.438;2023-04-22T14:10:53;14.40;89.10
23560;DHT22;11958;50.836;4.438;2023-04-22T15:02:26;13.10;92.20
23560;DHT22;11958;50.836;4.438;2023-04-22T15:14:26;13.80;87.80
23560;DHT22;11958;50.836;4.438;2023-04-22T15:23:48;13.90;87.50
23560;DHT22;11958;50.836;4.438;2023-04-22T15:26:37;13.70;85.90
23560;DHT22;11958;50.836;4.438;2023-04-22T15:29:08;13.70;86.60
23560;DHT22;11958;50.836;4.438;2023-04-22T15:31:46;13.80;86.50
23560;DHT22;11958;50.836;4.438;2023-04-22T15:34:14;13.80;85.70
23560;DHT22;11958;50.836;4.438;2023-04-22T15:43:55;13.50;85.20
23560;DHT22;11958;50.836;4.438;2023-04-22T15:47:24;13.20;86.40
23560;DHT22;11958;50.836;4.438;2023-04-22T15:53:48;12.90;87.90
23560;DHT22;11958;50.836;4.438;2023-04-22T16:16:57;12.70;87.40
23560;DHT22;11958;50.836;4.438;2023-04-22T16:19:22;12.80;84.00
23560;DHT22;11958;50.836;4.438;2023-04-22T16:21:49;12.50;87.50
23560;DHT22;11958;50.836;4.438;2023-04-22T16:24:14;12.20;87.70
23560;DHT22;11958;50.836;4.438;2023-04-22T16:26:40;12.10;88.80
23560;DHT22;11958;50.836;4.438;2023-04-22T16:29:07;12.30;89.50
23560;DHT22;11958;50.836;4.438;2023-04-22T16:31:33;12.30;90.70
23560;DHT22;11958;50.836;4.438;2023-04-22T16:33:59;12.30;88.50
23560;DHT22;11958;50.836;4.438;2023-04-22T16:36:25;12.20;87.60
23560;DHT22;11958;50.836;4.438;2023-04-22T16:38:51;12.30;88.00
23560;DHT22;11958;50.836;4.438;2023-04-22T16:41:16;12.30;88.90
23560;DHT22;11958;50.836;4.438;2023-04-22T16:43:42;12.20;88.10
23560;DHT22;11958;50.836;4.438;2023-04-22T16:46:08;12.10;89.10
23560;DHT22;11958;50.836;4.438;2023-04-22T16:48:33;12.10;88.50
23560;DHT22;11958;50.836;4.438;2023-04-22T16:51:00;11.80;86.90
23560;DHT22;11958;50.836;4.438;2023-04-22T16:53:25;11.90;87.80
23560;DHT22;11958;50.836;4.438;2023-04-22T16:55:51;12.20;87.40
23560;DHT22;11958;50.836;4.438;2023-04-22T16:58:17;12.20;87.60
23560;DHT22;11958;50.836;4.438;2023-04-22T17:00:42;12.30;88.50
23560;DHT22;11958;50.836;4.438;2023-04-22T17:03:08;12.40;87.90
23560;DHT22;11958;50.836;4.438;2023-04-22T17:05:36;12.30;86.60
23560;DHT22;11958;50.836;4.438;2023-04-22T17:08:01;12.60;87.00
23560;DHT22;11958;50.836;4.438;2023-04-22T17:10:27;12.50;85.60
23560;DHT22;11958;50.836;4.438;2023-04-22T17:12:53;12.50;86.20
23560;DHT22;11958;50.836;4.438;2023-04-22T17:15:19;12.40;85.80
23560;DHT22;11958;50.836;4.438;2023-04-22T17:17:45;12.50;86.10
23560;DHT22;11958;50.836;4.438;2023-04-22T17:20:10;12.60;87.00
23560;DHT22;11958;50.836;4.438;2023-04-22T17:22:36;12.60;86.70
23560;DHT22;11958;50.836;4.438;2023-04-22T17:25:02;12.80;84.60
23560;DHT22;11958;50.836;4.438;2023-04-22T17:27:28;12.80;84.80
23560;DHT22;11958;50.836;4.438;2023-04-22T17:29:54;12.60;85.50
23560;DHT22;11958;50.836;4.438;2023-04-22T17:32:20;12.80;84.00
23560;DHT22;11958;50.836;4.438;2023-04-22T17:34:46;12.70;85.70
23560;DHT22;11958;50.836;4.438;2023-04-22T17:37:12;12.80;84.30
23560;DHT22;11958;50.836;4.438;2023-04-22T17:39:38;12.90;84.30
23560;DHT22;11958;50.836;4.438;2023-04-22T17:42:05;12.50;85.80
23560;DHT22;11958;50.836;4.438;2023-04-22T17:44:31;12.60;86.40
23560;DHT22;11958;50.836;4.438;2023-04-22T17:46:56;12.60;85.90
23560;DHT22;11958;50.836;4.438;2023-04-22T17:49:22;12.60;85.20
23560;DHT22;11958;50.836;4.438;2023-04-22T17:51:48;12.40;86.40
23560;DHT22;11958;50.836;4.438;2023-04-22T17:54:14;12.40;87.00
23560;DHT22;11958;50.836;4.438;2023-04-22T17:56:39;12.20;87.20
23560;DHT22;11958;50.836;4.438;2023-04-22T17:59:06;12.50;86.90
23560;DHT22;11958;50.836;4.438;2023-04-22T18:01:31;12.80;84.70
23560;DHT22;11958;50.836;4.438;2023-04-22T18:03:58;12.60;86.00
23560;DHT22;11958;50.836;4.438;2023-04-22T18:06:24;12.60;86.20
23560;DHT22;11958;50.836;4.438;2023-04-22T18:08:50;12.70;86.10
23560;DHT22;11958;50.836;4.438;2023-04-22T18:11:15;12.50;86.60
23560;DHT22;11958;50.836;4.438;2023-04-22T18:13:41;12.30;87.20
23560;DHT22;11958;50.836;4.438;2023-04-22T18:16:07;12.50;86.20
23560;DHT22;11958;50.836;4.438;2023-04-22T18:18:32;12.60;86.70
23560;DHT22;11958;50.836;4.438;2023-04-22T18:21:27;12.50;86.60
23560;DHT22;11958;50.836;4.438;2023-04-22T18:23:54;12.30;87.10
23560;DHT22;11958;50.836;4.438;2023-04-22T18:26:19;12.10;87.80
23560;DHT22;11958;50.836;4.438;2023-04-22T18:28:45;11.80;89.00
23560;DHT22;11958;50.836;4.438;2023-04-22T18:31:11;11.50;89.80
23560;DHT22;11958;50.836;4.438;2023-04-22T18:33:37;11.70;89.40
23560;DHT22;11958;50.836;4.438;2023-04-22T18:36:03;11.90;89.10
23560;DHT22;11958;50.836;4.438;2023-04-22T18:38:29;11.90;88.40
23560;DHT22;11958;50.836;4.438;2023-04-22T18:40:55;12.10;88.10
23560;DHT22;11958;50.836;4.438;2023-04-22T18:43:21;12.20;87.80
23560;DHT22;11958;50.836;4.438;2023-04-22T18:45:46;11.90;87.90
23560;DHT22;11958;50.836;4.438;2023-04-22T18:48:12;12.10;88.20
23560;DHT22;11958;50.836;4.438;2023-04-22T18:50:38;11.70;88.60
23560;DHT22;11958;50.836;4.438;2023-04-22T18:53:04;11.40;89.20
23560;DHT22;11958;50.836;4.438;2023-04-22T18:55:30;11.70;89.20
23560;DHT22;11958;50.836;4.438;2023-04-22T18:57:55;11.90;88.20
23560;DHT22;11958;50.836;4.438;2023-04-22T19:00:21;11.50;88.40
23560;DHT22;11958;50.836;4.438;2023-04-22T19:02:47;11.30;89.70
23560;DHT22;11958;50.836;4.438;2023-04-22T19:05:12;11.50;89.30
23560;DHT22;11958;50.836;4.438;2023-04-22T19:07:39;11.50;89.20
23560;DHT22;11958;50.836;4.438;2023-04-22T19:10:08;11.40;89.10
23560;DHT22;11958;50.836;4.438;2023-04-22T19:12:34;11.30;89.00
23560;DHT22;11958;50.836;4.438;2023-04-22T19:15:00;11.00;89.70
23560;DHT22;11958;50.836;4.438;2023-04-22T19:17:27;10.90;90.10
23560;DHT22;11958;50.836;4.438;2023-04-22T19:19:53;10.50;91.00
23560;DHT22;11958;50.836;4.438;2023-04-22T19:22:19;10.70;91.30
23560;DHT22;11958;50.836;4.438;2023-04-22T19:24:45;10.70;91.20
23560;DHT22;11958;50.836;4.438;2023-04-22T19:27:12;10.60;91.40
23560;DHT22;11958;50.836;4.438;2023-04-22T19:29:42;10.60;91.90
23560;DHT22;11958;50.836;4.438;2023-04-22T19:32:10;10.80;90.80
23560;DHT22;11958;50.836;4.438;2023-04-22T19:34:37;10.90;90.20
23560;DHT22;11958;50.836;4.438;2023-04-22T19:37:03;10.80;90.30
23560;DHT22;11958;50.836;4.438;2023-04-22T19:39:32;10.80;90.70
23560;DHT22;11958;50.836;4.438;2023-04-22T19:41:57;10.80;90.50
23560;DHT22;11958;50.836;4.438;2023-04-22T19:44:27;10.70;91.10
23560;DHT22;11958;50.836;4.438;2023-04-22T19:46:53;10.90;90.30
23560;DHT22;11958;50.836;4.438;2023-04-22T19:49:19;10.70;90.30
23560;DHT22;11958;50.836;4.438;2023-04-22T19:51:59;10.90;90.10
23560;DHT22;11958;50.836;4.438;2023-04-22T19:54:26;10.50;91.00
23560;DHT22;11958;50.836;4.438;2023-04-22T19:56:54;10.30;92.00
23560;DHT22;11958;50.836;4.438;2023-04-22T19:59:41;10.20;92.60
23560;DHT22;11958;50.836;4.438;2023-04-22T20:02:07;10.20;92.80
23560;DHT22;11958;50.836;4.438;2023-04-22T20:04:34;10.50;92.60
23560;DHT22;11958;50.836;4.438;2023-04-22T20:07:00;10.60;90.80
23560;DHT22;11958;50.836;4.438;2023-04-22T20:09:30;10.50;90.80
23560;DHT22;11958;50.836;4.438;2023-04-22T20:12:18;10.60;91.20
23560;DHT22;11958;50.836;4.438;2023-04-22T20:14:44;10.50;91.20
23560;DHT22;11958;50.836;4.438;2023-04-22T20:17:10;10.30;91.70
23560;DHT22;11958;50.836;4.438;2023-04-22T20:19:36;10.30;91.70
23560;DHT22;11958;50.836;4.438;2023-04-22T20:22:08;10.50;91.40
23560;DHT22;11958;50.836;4.438;2023-04-22T20:24:36;10.70;90.80
23560;DHT22;11958;50.836;4.438;2023-04-22T20:27:25;10.70;90.30
23560;DHT22;11958;50.836;4.438;2023-04-22T20:29:50;10.70;90.50
23560;DHT22;11958;50.836;4.438;2023-04-22T20:32:17;10.70;90.50
23560;DHT22;11958;50.836;4.438;2023-04-22T20:34:42;10.80;90.40
23560;DHT22;11958;50.836;4.438;2023-04-22T20:37:09;10.70;90.00
23560;DHT22;11958;50.836;4.438;2023-04-22T20:39:39;10.50;91.10
23560;DHT22;11958;50.836;4.438;2023-04-22T20:42:06;10.70;90.80
23560;DHT22;11958;50.836;4.438;2023-04-22T20:44:52;10.70;90.30
23560;DHT22;11958;50.836;4.438;2023-04-22T20:47:18;10.50;90.70
23560;DHT22;11958;50.836;4.438;2023-04-22T20:49:48;10.30;90.90
23560;DHT22;11958;50.836;4.438;2023-04-22T20:52:14;10.40;91.80
23560;DHT22;11958;50.836;4.438;2023-04-22T20:54:40;10.40;91.70
23560;DHT22;11958;50.836;4.438;2023-04-22T20:57:06;10.60;90.80
23560;DHT22;11958;50.836;4.438;2023-04-22T20:59:34;10.60;90.90
23560;DHT22;11958;50.836;4.438;2023-04-22T21:02:01;10.30;91.50
23560;DHT22;11958;50.836;4.438;2023-04-22T21:04:28;10.40;90.70
23560;DHT22;11958;50.836;4.438;2023-04-22T21:06:54;10.20;91.60